Flight Track Log - Related Links

Times and Time Zones

All times are in EDT time to prevent confusion due to time zone crossing. See the BJS542 flight status page for this flight to view local times or setup timezone preferences in your user account.

Time Position Orientation Groundspeed Altitude Reporting Facility
EDT Latitude Longitude Course Direction KTS MPH feet Rate Location/Type
Fri 11:07:45 AM 26.0747 -81.7808 North 165 190 41,000  Level Miami Center
Fri 11:08:45 AM 26.1489 -81.7492 21° North 99 114 41,000  Level Miami Center
Fri 11:09:45 AM 26.2428 -81.7506 359° North 221 254 41,000 -12,000 Level Miami Center
Fri 11:10:45 AM 26.3431 -81.7525 359° North 295 339 17,000 -11,050 Descending Miami Center
Fri 11:11:45 AM 26.4517 -81.7500 North 435 501 18,900 1,400 Climbing Miami Center
Fri 11:12:00 AM 26.8611 -81.7426 North  Level FlightAware Approximate
Fri 11:12:45 AM 26.5708 -81.7481 North 405 466 19,800  Level Miami Center
Fri 11:13:00 AM 26.9794 -81.7333 North  Level FlightAware Approximate
Fri 11:13:45 AM 26.6833 -81.7481 360° North 393 452 20,700  Level Miami Center
Fri 11:14:45 AM 26.7961 -81.7481 360° North 393 452 21,000 450 Climbing Miami Center
Fri 11:15:45 AM 26.9153 -81.7461 North 405 466 21,600 2,167 Climbing Miami Center
Fri 11:17:45 AM 27.1317 -81.7061 North 417 480 27,500 2,767 Climbing Miami Center
Fri 11:18:45 AM 27.2511 -81.6856 North 417 480 29,900 2,400 Climbing Miami Center
Fri 11:19:45 AM 27.3850 -81.6769 North 432 497 32,300 2,150 Climbing Miami Center
Fri 11:20:45 AM 27.5106 -81.6731 North 447 514 34,200 1,850 Climbing Miami Center
Fri 11:21:45 AM 27.6403 -81.6644 North 452 520 36,000 1,700 Climbing Miami Center
Fri 11:22:45 AM 27.7553 -81.6575 North 464 534 37,600 1,448 Climbing Miami Center
Fri 11:25:08 AM 28.0603 -81.6389 North 457 526 40,900 1,005 Climbing Jacksonville Center
Fri 11:26:08 AM 28.1939 -81.6328 North 462 532 41,000 50 Climbing Jacksonville Center
Fri 11:27:08 AM 28.3231 -81.6264 North 462 532 41,000  Level Jacksonville Center
Fri 11:28:08 AM 28.4544 -81.6200 North 462 532 41,000  Level Jacksonville Center
Fri 11:29:08 AM 28.5858 -81.6136 North 462 532 41,000  Level Jacksonville Center
Fri 11:30:08 AM 28.7092 -81.6072 North 457 526 41,000  Level Jacksonville Center
Fri 11:31:08 AM 28.8364 -81.6008 North 452 520 41,000  Level Jacksonville Center
Fri 11:32:08 AM 28.9614 -81.5922 North 452 520 41,000  Level Jacksonville Center
Fri 11:33:08 AM 29.0889 -81.5953 359° North 452 520 41,000  Level Jacksonville Center
Fri 11:34:08 AM 29.2061 -81.6269 347° North 446 513 41,000 -250 Level Jacksonville Center
Fri 11:35:08 AM 29.3378 -81.6611 347° North 441 507 40,500 -1,050 Descending Jacksonville Center
Fri 11:36:08 AM 29.4656 -81.6953 347° North 447 514 38,900 -1,550 Descending Jacksonville Center
Fri 11:37:08 AM 29.5931 -81.7078 355° North 458 527 37,400 -1,500 Descending Jacksonville Center
Fri 11:38:08 AM 29.7244 -81.7064 North 463 533 35,900 -1,450 Descending Jacksonville Center
Fri 11:39:08 AM 29.8558 -81.7047 North 463 533 34,500 -1,450 Descending Jacksonville Center
Fri 11:40:08 AM 29.9814 -81.7153 356° North 478 550 33,000 -750 Descending Jacksonville Center
Fri 11:41:08 AM 30.1147 -81.6894 10° North 478 550 33,000  Level Jacksonville Center
Fri 11:42:08 AM 30.2481 -81.6567 12° North 484 557 33,000  Level Jacksonville Center
Fri 11:43:08 AM 30.3856 -81.6258 11° North 490 564 33,000  Level Jacksonville Center
Fri 11:44:08 AM 30.5231 -81.5953 11° North 490 564 33,000  Level Jacksonville Center
Fri 11:45:08 AM 30.6606 -81.5619 12° North 490 564 33,000  Level Jacksonville Center
Fri 11:46:08 AM 30.7978 -81.5311 11° North 490 564 33,000  Level Jacksonville Center
Fri 11:47:08 AM 30.9333 -81.4975 12° North 495 570 33,000  Level Jacksonville Center
Fri 11:48:08 AM 31.0708 -81.4664 11° North 500 575 33,000  Level Jacksonville Center
Fri 11:49:08 AM 31.2081 -81.4328 12° North 500 575 33,000  Level Jacksonville Center
Fri 11:50:08 AM 31.3558 -81.3939 13° North 500 575 33,000  Level Jacksonville Center
Fri 11:51:08 AM 31.4789 -81.3653 11° North 494 568 33,000 -900 Level Jacksonville Center
Fri 11:52:08 AM 31.6308 -81.3261 12° North 494 568 31,200 -1,850 Descending Jacksonville Center
Fri 11:53:08 AM 31.7514 -81.2972 12° North 494 568 29,300 -1,900 Descending Jacksonville Center
Fri 11:54:08 AM 31.8825 -81.2656 12° North 484 557 27,400 -2,000 Descending Jacksonville Center
Fri 11:55:08 AM 32.0094 -81.2217 16° North 479 551 25,300 -2,050 Descending Jacksonville Center
Fri 11:56:08 AM 32.0997 -81.1144 45° Northeast 446 513 23,300 -2,050 Descending Jacksonville Center
Fri 11:57:08 AM 32.1919 -80.9925 48° Northeast 436 502 21,200 -2,100 Descending Jacksonville Center
Fri 11:58:08 AM 32.2636 -80.9000 47° Northeast 430 495 19,100 -2,300 Descending Jacksonville Center
Fri 11:59:08 AM 32.3494 -80.7875 48° Northeast 415 478 16,600 -2,300 Descending Jacksonville Center
Fri 12:00:08 PM 32.4106 -80.7025 50° Northeast 398 458 14,500 -2,050 Descending Jacksonville Center
Fri 12:01:08 PM 32.4719 -80.6197 49° Northeast 360 414 12,500 -1,550 Descending Jacksonville Center
Fri 12:02:08 PM 32.5314 -80.5739 33° Northeast 278 320 11,400 -1,500 Descending Jacksonville Center
Fri 12:03:08 PM 32.6000 -80.5525 15° North 235 270 9,500 -1,900 Descending Jacksonville Center
Fri 12:04:08 PM 32.6369 -80.5169 39° Northeast 214 246 7,600 -2,000 Descending Jacksonville Center
Fri 12:05:08 PM 32.6650 -80.4569 61° Northeast 187 215 5,500 -1,850 Descending Jacksonville Center
Fri 12:06:08 PM 32.6828 -80.4047 68° East 181 208 3,900 -1,250 Descending Jacksonville Center
Fri 12:07:08 PM 32.6817 -80.3456 91° East 175 201 3,000 -450 Descending Jacksonville Center
Fri 12:08:08 PM 32.6803 -80.2789 91° East 181 208 3,000  Level Jacksonville Center
Fri 12:09:08 PM 32.6892 -80.2044 82° East 201 231 3,000  Level Jacksonville Center
Fri 12:11:00 PM 32.8603 -80.0641 48° Northeast  Level FlightAware Approximate
Fri 12:18:00 PM 32.8833 -80.0333 48° Northeast  Level FlightAware Approximate
Fri 12:19:00 PM 32.8986 -80.0405 48° Northeast  Level Estimated
Fri 12:20:00 PM 32.8986 -80.0405 48° Northeast  Level Estimated
Fri 12:21:00 PM 32.8986 -80.0405 48° Northeast  Level Estimated

Login

Don't have an account? Register now (free) for customized features, flight alerts, and more!